createdAt,value
2019-01-17T00:01:08.474Z,1.20
2019-01-17T00:04:09.450Z,1.13
2019-01-17T00:07:03.711Z,1.63
2019-01-17T00:10:01.496Z,0.87
2019-01-17T00:13:01.922Z,1.23
2019-01-17T00:16:12.450Z,1.03
2019-01-17T00:19:19.470Z,1.20
2019-01-17T00:22:24.754Z,1.20
2019-01-17T00:25:16.046Z,1.20
2019-01-17T00:28:10.915Z,1.00
2019-01-17T00:30:59.866Z,1.10
2019-01-17T00:33:54.992Z,1.03
2019-01-17T00:36:58.705Z,0.93
2019-01-17T00:40:03.505Z,1.20
2019-01-17T00:43:07.104Z,1.00
2019-01-17T00:46:08.514Z,0.90
2019-01-17T00:49:12.736Z,1.00
2019-01-17T00:52:17.310Z,1.00
2019-01-17T00:55:23.250Z,1.00
2019-01-17T00:58:21.162Z,1.00
2019-01-17T01:01:12.766Z,1.13
2019-01-17T01:04:22.167Z,0.70
2019-01-17T01:07:11.452Z,1.10
2019-01-17T01:10:06.168Z,1.10
2019-01-17T01:13:07.052Z,0.90
2019-01-17T01:16:03.852Z,1.00
2019-01-17T01:18:55.346Z,0.90
2019-01-17T01:22:05.668Z,1.00
2019-01-17T01:25:10.508Z,1.00
2019-01-17T01:28:05.831Z,1.00
2019-01-17T01:30:56.388Z,1.30
2019-01-17T01:33:55.066Z,0.87
2019-01-17T01:37:00.367Z,0.90
2019-01-17T01:40:06.137Z,1.13
2019-01-17T01:43:07.411Z,1.00
2019-01-17T01:46:21.070Z,1.20
2019-01-17T01:49:12.542Z,1.20
2019-01-17T01:52:11.614Z,0.87
2019-01-17T01:55:08.935Z,1.13
2019-01-17T01:58:02.967Z,1.03
2019-01-17T02:00:50.060Z,1.00
2019-01-17T02:03:44.270Z,1.00
2019-01-17T02:06:34.488Z,1.00
2019-01-17T02:09:28.948Z,1.00
2019-01-17T02:12:16.230Z,0.87
2019-01-17T02:15:10.251Z,1.10
2019-01-17T02:17:58.862Z,1.00
2019-01-17T02:20:52.424Z,1.00
2019-01-17T02:23:39.322Z,1.20
2019-01-17T02:26:33.438Z,0.80
2019-01-17T02:29:20.643Z,1.17
2019-01-17T02:32:14.946Z,1.20
2019-01-17T02:35:02.275Z,1.00
2019-01-17T02:37:56.701Z,1.03
2019-01-17T02:40:50.664Z,1.10
2019-01-17T02:43:51.356Z,1.30
2019-01-17T02:46:38.725Z,1.17
2019-01-17T02:49:32.980Z,0.87
2019-01-17T02:52:20.230Z,1.03
2019-01-17T02:55:16.014Z,1.10
2019-01-17T02:58:10.497Z,0.87
2019-01-17T03:01:04.842Z,1.03
2019-01-17T03:03:52.020Z,0.90
2019-01-17T03:06:48.708Z,0.80
2019-01-17T03:09:36.056Z,1.00
2019-01-17T03:12:30.226Z,1.23
2019-01-17T03:15:17.674Z,0.90
2019-01-17T03:18:11.349Z,1.00
2019-01-17T03:21:01.756Z,0.80
2019-01-17T03:23:55.875Z,0.83
2019-01-17T03:26:43.430Z,0.97
2019-01-17T03:29:37.426Z,1.17
2019-01-17T03:32:24.357Z,0.90
2019-01-17T03:35:18.340Z,0.90
2019-01-17T03:38:05.890Z,0.93
2019-01-17T03:41:06.409Z,0.93
2019-01-17T03:43:59.790Z,0.90
2019-01-17T03:46:56.671Z,0.70
2019-01-17T03:49:43.742Z,0.90
2019-01-17T03:52:38.754Z,0.90
2019-01-17T03:55:29.863Z,0.90
2019-01-17T03:58:23.500Z,0.80
2019-01-17T04:01:17.082Z,0.97
2019-01-17T04:04:11.474Z,1.00
2019-01-17T04:06:58.904Z,0.83
2019-01-17T04:09:52.884Z,0.90
2019-01-17T04:12:40.307Z,0.90
2019-01-17T04:15:34.880Z,1.00
2019-01-17T04:18:22.245Z,0.93
2019-01-17T04:21:16.708Z,0.90
2019-01-17T04:24:04.026Z,0.80
2019-01-17T04:26:58.328Z,0.90
2019-01-17T04:29:45.460Z,0.90
2019-01-17T04:32:39.723Z,0.97
2019-01-17T04:35:26.969Z,0.97
2019-01-17T04:38:21.822Z,0.80
2019-01-17T04:41:15.519Z,0.93
2019-01-17T04:44:09.575Z,0.87
2019-01-17T04:46:58.741Z,1.00
2019-01-17T04:49:54.260Z,0.80
2019-01-17T04:52:41.498Z,1.07
2019-01-17T04:55:35.651Z,0.83
2019-01-17T04:58:22.984Z,0.97
2019-01-17T05:01:19.350Z,0.97
2019-01-17T05:04:13.789Z,1.00
2019-01-17T05:07:07.749Z,1.00
2019-01-17T05:09:55.162Z,0.80
2019-01-17T05:12:49.697Z,0.97
2019-01-17T05:15:36.660Z,0.77
2019-01-17T05:18:29.992Z,0.83
2019-01-17T05:21:17.132Z,0.80
2019-01-17T05:24:11.371Z,1.17
2019-01-17T05:26:58.523Z,1.10
2019-01-17T05:29:53.042Z,0.80
2019-01-17T05:32:40.367Z,0.80
2019-01-17T05:35:34.499Z,0.90
2019-01-17T05:38:21.649Z,0.80
2019-01-17T05:41:16.237Z,0.80
2019-01-17T05:44:12.189Z,0.80
2019-01-17T05:47:06.553Z,1.10
2019-01-17T05:49:53.649Z,0.90
2019-01-17T05:52:47.858Z,0.90
2019-01-17T05:55:35.231Z,0.73
2019-01-17T05:58:29.165Z,1.00
2019-01-17T06:01:16.292Z,0.77
2019-01-17T06:04:12.035Z,0.80
2019-01-17T06:07:10.127Z,0.70
2019-01-17T06:10:05.761Z,0.90
2019-01-17T06:12:54.143Z,0.80
2019-01-17T06:15:48.751Z,0.70
2019-01-17T06:18:36.235Z,0.70
2019-01-17T06:21:29.981Z,0.67
2019-01-17T06:24:17.523Z,0.73
2019-01-17T06:27:11.588Z,0.53
2019-01-17T06:30:03.517Z,0.73
2019-01-17T06:32:57.747Z,0.70
2019-01-17T06:35:47.510Z,0.50
2019-01-17T06:38:41.159Z,0.70
2019-01-17T06:41:28.238Z,0.40
2019-01-17T06:44:29.951Z,0.43
2019-01-17T06:47:17.415Z,0.77
2019-01-17T06:50:12.985Z,0.70
2019-01-17T06:53:06.917Z,0.70
2019-01-17T06:56:04.408Z,0.40
2019-01-17T06:58:53.281Z,0.40
2019-01-17T07:01:47.554Z,0.50
2019-01-17T07:04:36.806Z,0.50
2019-01-17T07:07:30.633Z,0.40
2019-01-17T07:10:24.501Z,0.50
2019-01-17T07:13:19.070Z,0.50
2019-01-17T07:16:06.231Z,0.40
2019-01-17T07:18:59.715Z,0.40
2019-01-17T07:21:47.001Z,0.50
2019-01-17T07:24:41.297Z,0.70
2019-01-17T07:27:29.701Z,0.70
2019-01-17T07:30:25.101Z,0.47
2019-01-17T07:33:12.485Z,0.60
2019-01-17T07:36:09.673Z,0.47
2019-01-17T07:38:56.683Z,0.30
2019-01-17T07:41:50.995Z,0.50
2019-01-17T07:44:45.508Z,0.37
2019-01-17T07:47:47.099Z,0.30
2019-01-17T07:50:34.315Z,0.50
2019-01-17T07:53:28.421Z,0.50
2019-01-17T07:56:15.725Z,0.50
2019-01-17T07:59:09.553Z,0.40
2019-01-17T08:01:56.658Z,0.40
2019-01-17T08:04:53.215Z,0.30
2019-01-17T08:07:40.519Z,0.50
2019-01-17T08:10:35.446Z,0.30
2019-01-17T08:13:30.749Z,0.50
2019-01-17T08:16:27.054Z,0.30
2019-01-17T08:19:13.985Z,0.60
2019-01-17T08:22:08.780Z,0.30
2019-01-17T08:24:56.439Z,0.40
2019-01-17T08:27:50.781Z,0.60
2019-01-17T08:30:38.510Z,0.50
2019-01-17T08:33:32.434Z,0.50
2019-01-17T08:36:19.842Z,0.57
2019-01-17T08:39:15.214Z,0.40
2019-01-17T08:42:02.318Z,0.50
2019-01-17T08:45:03.407Z,0.50
2019-01-17T08:47:55.347Z,0.53
2019-01-17T08:50:49.415Z,0.30
2019-01-17T08:53:39.593Z,0.37
2019-01-17T08:56:33.938Z,0.20
2019-01-17T08:59:21.107Z,0.30
2019-01-17T09:02:15.314Z,0.67
2019-01-17T09:05:02.573Z,0.37
2019-01-17T09:07:56.709Z,0.30
2019-01-17T09:10:44.539Z,0.23
2019-01-17T09:13:38.204Z,0.20
2019-01-17T09:16:32.922Z,0.20
2019-01-17T09:19:29.501Z,0.30
2019-01-17T09:22:16.471Z,0.30
2019-01-17T09:25:11.319Z,0.33
2019-01-17T09:27:59.009Z,0.40
2019-01-17T09:30:54.907Z,0.20
2019-01-17T09:33:43.918Z,0.23
2019-01-17T09:36:38.558Z,0.37
2019-01-17T09:39:25.755Z,0.23
2019-01-17T09:42:20.856Z,0.20
2019-01-17T09:45:14.623Z,0.30
2019-01-17T09:48:15.820Z,0.30
2019-01-17T09:51:03.056Z,0.30
2019-01-17T09:53:57.681Z,0.30
2019-01-17T09:56:45.028Z,0.20
2019-01-17T09:59:40.112Z,0.40
2019-01-17T10:02:27.535Z,0.13
2019-01-17T10:05:22.429Z,0.27
2019-01-17T10:08:09.612Z,0.30
2019-01-17T10:11:03.670Z,0.20
2019-01-17T10:13:51.024Z,0.43
2019-01-17T10:16:47.541Z,0.10
2019-01-17T10:19:52.536Z,0.33
2019-01-17T10:22:54.095Z,0.30
2019-01-17T10:25:45.711Z,0.30
2019-01-17T10:28:47.358Z,0.27
2019-01-17T10:31:48.335Z,0.20
2019-01-17T10:34:53.272Z,0.20
2019-01-17T10:37:42.076Z,0.10
2019-01-17T10:40:38.016Z,0.30
2019-01-17T10:43:43.735Z,0.30
2019-01-17T10:47:04.729Z,0.20
2019-01-17T10:50:08.396Z,0.10
2019-01-17T10:53:09.886Z,0.20
2019-01-17T10:56:06.810Z,0.20
2019-01-17T10:59:05.418Z,0.40
2019-01-17T11:01:54.591Z,0.30
2019-01-17T11:04:56.394Z,0.17
2019-01-17T11:07:51.491Z,0.30
2019-01-17T11:11:01.499Z,0.20
2019-01-17T11:13:56.253Z,0.50
2019-01-17T11:16:58.551Z,0.20
2019-01-17T11:19:50.349Z,0.20
2019-01-17T11:22:56.676Z,0.33
2019-01-17T11:25:48.653Z,0.10
2019-01-17T11:28:44.251Z,0.23
2019-01-17T11:31:36.244Z,0.30
2019-01-17T11:34:37.909Z,0.30
2019-01-17T11:37:26.961Z,0.30
2019-01-17T11:40:25.750Z,0.30
2019-01-17T11:43:29.785Z,0.37
2019-01-17T11:46:32.077Z,0.13
2019-01-17T11:49:33.027Z,0.20
2019-01-17T11:52:28.651Z,0.20
2019-01-17T11:55:20.437Z,0.20
2019-01-17T11:58:32.315Z,0.50
2019-01-17T12:01:32.188Z,0.10
2019-01-17T12:04:41.864Z,0.30
2019-01-17T12:07:29.247Z,0.17
2019-01-17T12:10:23.277Z,0.20
2019-01-17T12:13:17.337Z,0.43
2019-01-17T12:16:07.213Z,0.30
2019-01-17T12:18:54.767Z,0.27
2019-01-17T12:21:48.804Z,0.20
2019-01-17T12:24:42.382Z,0.20
2019-01-17T12:27:42.557Z,0.10
2019-01-17T12:30:26.017Z,0.17
2019-01-17T12:33:20.355Z,0.40
2019-01-17T12:36:07.822Z,0.30
2019-01-17T12:39:02.018Z,0.27
2019-01-17T12:41:49.280Z,0.40
2019-01-17T12:44:43.003Z,0.10
2019-01-17T12:47:36.841Z,0.47
2019-01-17T12:50:40.054Z,0.30
2019-01-17T12:53:31.401Z,0.20
2019-01-17T12:56:26.965Z,0.33
2019-01-17T12:59:13.981Z,0.17
2019-01-17T13:02:08.491Z,0.10
2019-01-17T13:04:55.873Z,0.30
2019-01-17T13:07:51.339Z,0.30
2019-01-17T13:10:38.699Z,0.30
2019-01-17T13:13:33.475Z,0.20
2019-01-17T13:16:20.601Z,0.10
2019-01-17T13:19:15.363Z,0.20
2019-01-17T13:22:02.686Z,0.20
2019-01-17T13:24:56.357Z,0.20
2019-01-17T13:27:50.323Z,0.30
2019-01-17T13:30:44.871Z,0.23
2019-01-17T13:33:32.336Z,0.30
2019-01-17T13:36:26.910Z,0.20
2019-01-17T13:39:14.161Z,0.10
2019-01-17T13:42:08.858Z,0.20
2019-01-17T13:44:56.398Z,0.20
2019-01-17T13:47:53.183Z,0.37
2019-01-17T13:50:46.766Z,0.40
2019-01-17T13:53:44.149Z,0.20
2019-01-17T13:56:31.189Z,0.30
2019-01-17T13:59:27.172Z,0.23
2019-01-17T14:02:14.441Z,0.30
2019-01-17T14:05:11.763Z,0.10
2019-01-17T14:07:58.846Z,0.40
2019-01-17T14:10:53.406Z,0.30
2019-01-17T14:13:43.709Z,0.30
2019-01-17T14:16:37.684Z,0.30
2019-01-17T14:19:24.965Z,0.20
2019-01-17T14:22:18.992Z,0.30
2019-01-17T14:25:08.123Z,0.30
2019-01-17T14:28:02.850Z,0.50
2019-01-17T14:30:57.112Z,0.20
2019-01-17T14:33:51.545Z,0.20
2019-01-17T14:36:39.026Z,0.30
2019-01-17T14:39:33.488Z,0.50
2019-01-17T14:42:20.638Z,0.30
2019-01-17T14:45:16.195Z,0.20
2019-01-17T14:48:03.684Z,0.27
2019-01-17T14:51:05.345Z,0.40
2019-01-17T14:53:59.555Z,0.30
2019-01-17T14:56:53.539Z,0.20
2019-01-17T14:59:44.110Z,0.10
2019-01-17T15:02:39.215Z,0.30
2019-01-17T15:05:26.425Z,0.27
2019-01-17T15:08:24.310Z,0.10
2019-01-17T15:11:13.395Z,0.40
2019-01-17T15:14:07.501Z,0.50
2019-01-17T15:16:54.970Z,0.20
2019-01-17T15:19:49.313Z,0.13
2019-01-17T15:22:36.599Z,0.20
2019-01-17T15:25:30.689Z,0.30
2019-01-17T15:28:23.707Z,0.30
2019-01-17T15:31:18.637Z,0.20
2019-01-17T15:34:13.170Z,0.20
2019-01-17T15:37:07.283Z,0.20
2019-01-17T15:39:54.451Z,0.10
2019-01-17T15:42:48.091Z,0.17
2019-01-17T15:45:37.039Z,0.30
2019-01-17T15:48:33.093Z,0.40
2019-01-17T15:51:20.525Z,0.30
2019-01-17T15:54:20.693Z,0.50
2019-01-17T15:57:18.235Z,0.40
2019-01-17T16:00:14.050Z,0.20
2019-01-17T16:03:01.601Z,0.17
2019-01-17T16:05:56.139Z,0.30
2019-01-17T16:08:43.093Z,0.27
2019-01-17T16:11:37.106Z,0.30
2019-01-17T16:14:24.345Z,0.20
2019-01-17T16:17:18.009Z,0.30
2019-01-17T16:20:06.846Z,0.40
2019-01-17T16:23:01.223Z,0.30
2019-01-17T16:25:48.395Z,0.20
2019-01-17T16:28:42.198Z,0.30
2019-01-17T16:31:29.457Z,0.40
2019-01-17T16:34:23.608Z,1.13
2019-01-17T16:37:21.495Z,0.90
2019-01-17T16:40:17.139Z,0.70
2019-01-17T16:43:04.335Z,0.40
2019-01-17T16:45:57.797Z,0.50
2019-01-17T16:48:46.913Z,0.33
2019-01-17T16:51:41.753Z,0.47
2019-01-17T16:54:38.915Z,1.43
2019-01-17T16:57:48.540Z,0.70
2019-01-17T17:00:33.259Z,0.40
2019-01-17T17:03:27.499Z,0.77
2019-01-17T17:06:14.637Z,0.70
2019-01-17T17:09:08.691Z,0.63
2019-01-17T17:11:56.285Z,0.60
2019-01-17T17:14:50.231Z,0.50
2019-01-17T17:17:39.187Z,0.50
2019-01-17T17:20:34.003Z,0.50
2019-01-17T17:23:20.905Z,0.47
2019-01-17T17:26:16.066Z,0.43
2019-01-17T17:29:03.209Z,0.80
2019-01-17T17:31:57.781Z,0.40
2019-01-17T17:34:54.518Z,0.20
2019-01-17T17:37:48.774Z,0.33
2019-01-17T17:40:43.822Z,0.60
2019-01-17T17:43:40.926Z,0.80
2019-01-17T17:46:30.115Z,0.30
2019-01-17T17:49:25.133Z,0.60
2019-01-17T17:52:12.432Z,0.73
2019-01-17T17:55:12.957Z,0.50
2019-01-17T17:58:02.230Z,0.40
2019-01-17T18:00:58.788Z,0.60
2019-01-17T18:03:46.535Z,0.70
2019-01-17T18:06:40.297Z,0.80
2019-01-17T18:09:27.861Z,0.60
2019-01-17T18:12:21.387Z,0.43
2019-01-17T18:15:10.425Z,0.60
2019-01-17T18:18:03.873Z,0.63
2019-01-17T18:20:53.840Z,0.50
2019-01-17T18:23:47.625Z,0.70
2019-01-17T18:26:35.151Z,0.67
2019-01-17T18:29:28.992Z,0.63
2019-01-17T18:32:16.192Z,0.77
2019-01-17T18:35:09.962Z,0.70
2019-01-17T18:37:59.414Z,0.50
2019-01-17T18:40:54.967Z,0.60
2019-01-17T18:43:51.471Z,0.80
2019-01-17T18:46:46.229Z,0.73
2019-01-17T18:49:36.339Z,0.60
2019-01-17T18:52:30.501Z,0.67
2019-01-17T18:55:24.655Z,0.70
2019-01-17T18:58:26.746Z,0.70
2019-01-17T19:01:16.551Z,0.40
2019-01-17T19:04:10.453Z,0.50
2019-01-17T19:06:57.793Z,0.70
2019-01-17T19:09:51.621Z,0.87
2019-01-17T19:12:38.983Z,0.70
2019-01-17T19:15:33.990Z,1.00
2019-01-17T19:18:21.047Z,0.93
2019-01-17T19:21:15.031Z,0.80
2019-01-17T19:24:03.928Z,0.73
2019-01-17T19:26:58.695Z,1.07
2019-01-17T19:29:45.616Z,0.77
2019-01-17T19:32:39.495Z,0.70
2019-01-17T19:35:27.103Z,0.63
2019-01-17T19:38:21.204Z,0.80
2019-01-17T19:41:08.647Z,0.50
2019-01-17T19:44:04.227Z,0.53
2019-01-17T19:46:59.608Z,0.63
2019-01-17T19:49:54.045Z,0.80
2019-01-17T19:52:41.101Z,0.83
2019-01-17T19:55:35.041Z,0.30
2019-01-17T19:58:29.262Z,0.83
2019-01-17T20:01:23.827Z,0.77
2019-01-17T20:04:17.111Z,0.40
2019-01-17T20:07:12.270Z,0.93
2019-01-17T20:09:59.754Z,0.60
2019-01-17T20:12:54.719Z,0.77
2019-01-17T20:15:44.720Z,0.67
2019-01-17T20:18:39.483Z,0.67
2019-01-17T20:21:26.749Z,0.80
2019-01-17T20:24:21.144Z,0.67
2019-01-17T20:27:08.119Z,0.63
2019-01-17T20:30:02.456Z,1.00
2019-01-17T20:32:49.997Z,0.77
2019-01-17T20:35:44.409Z,0.63
2019-01-17T20:38:31.410Z,0.70
2019-01-17T20:41:26.432Z,0.70
2019-01-17T20:44:13.598Z,0.77
2019-01-17T20:47:08.990Z,0.73
2019-01-17T20:53:20.623Z,0.77
2019-01-17T20:56:08.130Z,0.80
2019-01-17T20:59:08.434Z,0.90
2019-01-17T21:01:57.462Z,0.80
2019-01-17T21:04:52.271Z,0.87
2019-01-17T21:07:39.704Z,0.83
2019-01-17T21:10:34.220Z,0.87
2019-01-17T21:13:50.493Z,0.80
2019-01-17T21:16:44.557Z,1.00
2019-01-17T21:19:31.776Z,0.70
2019-01-17T21:22:25.940Z,0.73
2019-01-17T21:25:17.520Z,1.00
2019-01-17T21:28:12.674Z,0.90
2019-01-17T21:31:01.706Z,0.70
2019-01-17T21:33:56.209Z,0.60
2019-01-17T21:36:43.440Z,0.90
2019-01-17T21:39:37.094Z,0.80
2019-01-17T21:42:24.110Z,0.80
2019-01-17T21:45:22.390Z,0.93
2019-01-17T21:48:09.304Z,0.87
2019-01-17T21:51:13.622Z,0.73
2019-01-17T21:54:01.140Z,0.90
2019-01-17T21:56:55.716Z,0.97
2019-01-17T21:59:49.890Z,0.87
2019-01-17T22:02:50.859Z,0.80
2019-01-17T22:05:38.040Z,0.93
2019-01-17T22:08:32.628Z,0.93
2019-01-17T22:11:19.782Z,1.13
2019-01-17T22:14:13.764Z,1.10
2019-01-17T22:17:00.661Z,0.80
2019-01-17T22:19:55.525Z,0.70
2019-01-17T22:22:42.901Z,0.90
2019-01-17T22:25:37.458Z,1.10
2019-01-17T22:28:24.723Z,0.93
2019-01-17T22:31:18.805Z,0.90
2019-01-17T22:34:05.856Z,0.87
2019-01-17T22:36:59.916Z,1.10
2019-01-17T22:39:47.172Z,0.83
2019-01-17T22:42:41.496Z,0.97
2019-01-17T22:45:57.491Z,0.97
2019-01-17T22:48:30.700Z,0.87
2019-01-17T22:51:18.145Z,1.10
2019-01-17T22:54:19.154Z,1.00
2019-01-17T22:57:06.261Z,0.80
2019-01-17T23:00:07.186Z,0.87
2019-01-17T23:02:54.242Z,0.90
2019-01-17T23:05:48.724Z,0.90
2019-01-17T23:08:36.247Z,0.80
2019-01-17T23:11:30.670Z,0.90
2019-01-17T23:14:18.068Z,0.90
2019-01-17T23:17:11.618Z,1.20
2019-01-17T23:19:58.716Z,1.07
2019-01-17T23:22:54.422Z,0.77
2019-01-17T23:25:41.653Z,0.87
2019-01-17T23:28:35.956Z,0.90
2019-01-17T23:31:24.688Z,0.80
2019-01-17T23:34:18.963Z,1.03
2019-01-17T23:37:06.155Z,0.80
2019-01-17T23:40:00.726Z,0.93
2019-01-17T23:42:48.245Z,1.00
2019-01-17T23:45:42.558Z,1.17
2019-01-17T23:48:29.534Z,1.27
2019-01-17T23:51:23.840Z,1.07
2019-01-17T23:54:11.127Z,1.00
2019-01-17T23:57:11.812Z,0.97
